Time;durP1;ratioP1;P1;durP2;ratioP2;P2;SDS_P1;SDS_P2;PMS_P1;PMS_P2;Temp;Humidity;BMP_temperature;BMP_pressure;BME280_temperature;BME280_humidity;BME280_pressure;Samples;Min_cycle;Max_cycle;Signal;HPM_P1;HPM_P2
2023/12/05 00:01:01;;;;;;;42.17;16.30;;;2.20;99.90;;;;;;4888243;29;20416;-74
2023/12/05 00:03:27;;;;;;;45.10;17.10;;;2.20;99.90;;;;;;4888296;29;20199;-74
2023/12/05 00:05:52;;;;;;;43.50;17.73;;;2.20;99.90;;;;;;4890015;29;20211;-73
2023/12/05 00:08:18;;;;;;;45.37;17.20;;;2.20;99.90;;;;;;4889470;29;20200;-72
2023/12/05 00:10:44;;;;;;;43.33;19.27;;;2.20;99.90;;;;;;4889012;29;20707;-72
2023/12/05 00:13:10;;;;;;;42.40;18.33;;;2.20;99.90;;;;;;4890625;29;20199;-73
2023/12/05 00:15:36;;;;;;;54.87;19.03;;;2.20;99.90;;;;;;4891184;29;20471;-73
2023/12/05 00:18:02;;;;;;;49.00;18.57;;;2.20;99.90;;;;;;4889140;29;20428;-73
2023/12/05 00:20:27;;;;;;;51.63;18.13;;;2.20;99.90;;;;;;4887872;29;20188;-73
2023/12/05 00:22:53;;;;;;;41.20;17.00;;;2.20;99.90;;;;;;4887388;29;20203;-71
2023/12/05 00:25:18;;;;;;;39.23;17.00;;;2.20;99.90;;;;;;4888534;29;20223;-73
2023/12/05 00:27:44;;;;;;;39.20;16.30;;;2.30;99.90;;;;;;4888598;29;20183;-72
2023/12/05 00:30:10;;;;;;;44.87;16.83;;;2.30;99.90;;;;;;4886695;29;20208;-72
2023/12/05 00:32:36;;;;;;;42.00;16.90;;;2.30;99.90;;;;;;4886712;29;20214;-71
2023/12/05 00:35:01;;;;;;;42.73;17.83;;;2.30;99.90;;;;;;4888777;29;20539;-72
2023/12/05 00:37:27;;;;;;;41.13;17.20;;;2.30;99.90;;;;;;4884705;29;20226;-72
2023/12/05 00:39:53;;;;;;;41.50;17.20;;;2.30;99.90;;;;;;4885646;29;20222;-72
2023/12/05 00:42:18;;;;;;;44.10;16.77;;;2.30;99.90;;;;;;4883549;29;20208;-71
2023/12/05 00:44:44;;;;;;;36.60;13.90;;;2.30;99.90;;;;;;4883740;29;20259;-72
2023/12/05 00:47:10;;;;;;;34.90;14.37;;;2.30;99.90;;;;;;4886267;29;20485;-71
2023/12/05 00:49:35;;;;;;;41.60;16.17;;;2.40;99.90;;;;;;4880585;29;20207;-71
2023/12/05 00:52:01;;;;;;;39.83;14.77;;;2.40;99.90;;;;;;4883352;29;20503;-71
2023/12/05 00:54:27;;;;;;;40.33;15.67;;;2.40;99.90;;;;;;4883180;29;20200;-72
2023/12/05 00:56:53;;;;;;;36.73;15.00;;;2.40;99.90;;;;;;4883234;29;20874;-72
2023/12/05 00:59:19;;;;;;;34.40;15.33;;;2.40;99.90;;;;;;4883865;29;20294;-71
2023/12/05 01:01:45;;;;;;;45.00;17.37;;;2.40;99.90;;;;;;4883400;29;20582;-73
2023/12/05 01:04:10;;;;;;;39.20;17.00;;;2.40;99.90;;;;;;4881910;29;20430;-71
2023/12/05 01:06:36;;;;;;;43.47;16.37;;;2.40;99.90;;;;;;4882914;29;20291;-71
2023/12/05 01:09:01;;;;;;;36.07;15.60;;;2.40;99.90;;;;;;4883133;29;20580;-71
2023/12/05 01:11:27;;;;;;;40.83;16.50;;;2.50;99.90;;;;;;4883771;29;20211;-73
2023/12/05 01:13:53;;;;;;;49.20;18.13;;;2.50;99.90;;;;;;4884161;29;20319;-72
2023/12/05 01:16:18;;;;;;;52.40;17.60;;;2.50;99.90;;;;;;4882695;29;20231;-72
2023/12/05 01:18:44;;;;;;;56.10;18.47;;;2.50;99.90;;;;;;4880140;29;20187;-72
2023/12/05 01:21:09;;;;;;;47.57;17.70;;;2.50;99.90;;;;;;4882862;29;20245;-71
2023/12/05 01:23:35;;;;;;;40.63;15.80;;;2.50;99.90;;;;;;4882882;29;20200;-71
2023/12/05 01:26:01;;;;;;;38.70;15.20;;;2.50;99.90;;;;;;4881987;29;20220;-72
2023/12/05 01:28:26;;;;;;;39.60;16.53;;;2.50;99.90;;;;;;4882777;29;20255;-72
2023/12/05 01:30:52;;;;;;;44.07;16.47;;;2.60;99.90;;;;;;4884347;29;20194;-71
2023/12/05 01:33:18;;;;;;;42.93;16.47;;;2.60;99.90;;;;;;4881717;29;20337;-71
2023/12/05 01:35:43;;;;;;;36.13;17.20;;;2.60;99.90;;;;;;4883485;29;20215;-72
2023/12/05 01:38:09;;;;;;;44.83;17.10;;;2.60;99.90;;;;;;4882965;29;20282;-72
2023/12/05 01:40:34;;;;;;;39.97;15.03;;;2.60;99.90;;;;;;4882195;29;20184;-72
2023/12/05 01:43:00;;;;;;;36.63;14.77;;;2.60;99.90;;;;;;4882054;29;20203;-72
2023/12/05 01:45:25;;;;;;;38.20;16.40;;;2.60;99.90;;;;;;4881979;29;20211;-71
2023/12/05 01:47:51;;;;;;;46.63;18.90;;;2.60;99.90;;;;;;4879601;29;20204;-72
2023/12/05 01:50:22;;;;;;;36.60;15.27;;;2.60;99.90;;;;;;4882132;29;20227;-72
2023/12/05 01:52:54;;;;;;;41.30;16.57;;;2.60;99.90;;;;;;4882650;29;20428;-71
2023/12/05 01:55:22;;;;;;;32.73;14.13;;;2.60;99.90;;;;;;4882262;29;20534;-71
2023/12/05 01:57:48;;;;;;;35.47;16.00;;;2.70;99.90;;;;;;4882529;29;20912;-72
2023/12/05 02:00:16;;;;;;;39.80;16.80;;;2.70;99.90;;;;;;4885599;29;20481;-72
2023/12/05 02:02:44;;;;;;;44.80;17.00;;;2.70;99.90;;;;;;4885738;29;20428;-72
2023/12/05 02:05:11;;;;;;;52.60;18.27;;;2.70;99.90;;;;;;4885565;29;20429;-73
2023/12/05 02:07:36;;;;;;;44.17;16.33;;;2.70;99.90;;;;;;4884835;29;20450;-73
2023/12/05 02:10:06;;;;;;;42.70;17.70;;;2.70;99.90;;;;;;4885478;29;20433;-73
2023/12/05 02:12:32;;;;;;;43.83;17.07;;;2.70;99.90;;;;;;4884926;29;20436;-71
2023/12/05 02:14:58;;;;;;;50.83;17.17;;;2.70;99.90;;;;;;4879893;29;20756;-72
2023/12/05 02:17:35;;;;;;;38.40;14.47;;;2.70;99.90;;;;;;4880240;29;20469;-74
2023/12/05 02:20:28;;;;;;;42.83;16.83;;;2.70;99.90;;;;;;4880958;29;20282;-72
2023/12/05 02:23:16;;;;;;;40.70;16.50;;;2.70;99.90;;;;;;4880656;29;20463;-73
2023/12/05 02:25:59;;;;;;;34.27;13.80;;;2.70;99.90;;;;;;4886246;29;20456;-72
2023/12/05 02:28:25;;;;;;;39.33;15.20;;;2.70;99.90;;;;;;4886198;29;20427;-73
2023/12/05 02:30:52;;;;;;;34.13;14.13;;;2.70;99.90;;;;;;4890687;29;20441;-73
2023/12/05 02:33:18;;;;;;;38.70;15.53;;;2.70;99.90;;;;;;4882851;29;20424;-72
2023/12/05 02:35:44;;;;;;;42.33;15.30;;;2.70;99.90;;;;;;4884365;29;20480;-73
2023/12/05 02:38:22;;;;;;;34.57;14.53;;;2.80;99.90;;;;;;4884543;29;20412;-72
2023/12/05 02:40:56;;;;;;;42.17;14.37;;;2.80;99.90;;;;;;4885017;29;20461;-72
2023/12/05 02:43:30;;;;;;;39.73;15.70;;;2.80;99.90;;;;;;4885500;29;20444;-74
2023/12/05 02:45:58;;;;;;;38.80;15.87;;;2.80;99.90;;;;;;4883963;29;20748;-72
2023/12/05 02:48:24;;;;;;;36.90;15.57;;;2.80;99.90;;;;;;4884261;29;20436;-72
2023/12/05 02:50:52;;;;;;;42.10;15.33;;;2.80;99.90;;;;;;4884902;29;20448;-74
2023/12/05 02:53:18;;;;;;;45.83;15.63;;;2.80;99.90;;;;;;4885374;29;20527;-73
2023/12/05 02:55:44;;;;;;;38.70;15.50;;;2.80;99.90;;;;;;4884844;29;20967;-72
2023/12/05 02:58:10;;;;;;;36.97;15.80;;;2.80;99.90;;;;;;4883942;29;20458;-73
2023/12/05 03:00:35;;;;;;;40.20;16.27;;;2.80;99.90;;;;;;4883713;29;20468;-73
2023/12/05 03:03:01;;;;;;;35.60;15.47;;;2.80;99.90;;;;;;4883136;29;20203;-72
2023/12/05 03:05:26;;;;;;;39.40;15.47;;;2.80;99.90;;;;;;4884023;29;20298;-72
2023/12/05 03:07:52;;;;;;;35.70;15.67;;;2.80;99.90;;;;;;4884104;29;20488;-73
2023/12/05 03:10:17;;;;;;;38.40;15.57;;;2.90;99.90;;;;;;4883692;29;20199;-73
2023/12/05 03:12:43;;;;;;;36.77;17.40;;;2.90;99.90;;;;;;4886095;29;20187;-73
2023/12/05 03:15:09;;;;;;;46.60;14.80;;;2.90;99.90;;;;;;4890446;29;20243;-74
2023/12/05 03:17:35;;;;;;;41.90;13.77;;;2.90;99.90;;;;;;4891553;29;20168;-72
2023/12/05 03:20:00;;;;;;;28.93;13.57;;;3.00;99.90;;;;;;4891095;29;20409;-71
2023/12/05 03:22:26;;;;;;;37.80;15.30;;;3.00;99.90;;;;;;4891204;29;20660;-73
2023/12/05 03:24:51;;;;;;;34.47;13.60;;;3.00;99.90;;;;;;4891041;29;20215;-72
2023/12/05 03:27:17;;;;;;;45.97;15.90;;;3.00;99.90;;;;;;4890621;29;20616;-73
2023/12/05 03:29:43;;;;;;;38.50;14.40;;;3.10;99.90;;;;;;4891227;29;20164;-73
2023/12/05 03:32:08;;;;;;;34.63;15.60;;;3.10;99.90;;;;;;4889400;29;20699;-71
2023/12/05 03:34:34;;;;;;;31.83;13.13;;;3.10;99.90;;;;;;4889356;29;20200;-72
2023/12/05 03:36:59;;;;;;;32.80;14.80;;;3.10;99.90;;;;;;4890810;29;20202;-72
2023/12/05 03:39:25;;;;;;;41.80;14.87;;;3.20;99.90;;;;;;4890305;29;20179;-72
2023/12/05 03:41:50;;;;;;;41.23;15.03;;;3.20;99.90;;;;;;4890215;29;20199;-71
2023/12/05 03:44:16;;;;;;;38.60;14.60;;;3.20;99.90;;;;;;4889515;29;20188;-73
2023/12/05 03:46:42;;;;;;;35.40;12.53;;;3.20;99.90;;;;;;4889568;29;20207;-73
2023/12/05 03:49:07;;;;;;;36.20;13.23;;;3.20;99.90;;;;;;4890428;29;20199;-72
2023/12/05 03:51:33;;;;;;;35.50;13.87;;;3.30;99.90;;;;;;4890936;29;20329;-72
2023/12/05 03:53:58;;;;;;;30.57;12.23;;;3.30;99.90;;;;;;4890710;29;20188;-73
2023/12/05 03:56:24;;;;;;;34.83;13.60;;;3.30;99.90;;;;;;4889915;29;20238;-72
2023/12/05 03:58:51;;;;;;;38.80;13.20;;;3.30;99.90;;;;;;4891602;29;20199;-72
2023/12/05 04:01:17;;;;;;;29.00;12.33;;;3.30;99.90;;;;;;4890225;29;20270;-72
2023/12/05 04:03:43;;;;;;;29.37;12.57;;;3.30;99.90;;;;;;4888240;29;20459;-74
2023/12/05 04:06:09;;;;;;;35.00;13.03;;;3.30;99.90;;;;;;4891563;29;20239;-72
2023/12/05 04:08:34;;;;;;;33.27;13.50;;;3.40;99.90;;;;;;4890916;29;20192;-73
2023/12/05 04:11:00;;;;;;;32.27;12.43;;;3.40;99.90;;;;;;4890073;29;20884;-72
2023/12/05 04:13:26;;;;;;;32.50;12.40;;;3.40;99.90;;;;;;4895305;29;20287;-72
2023/12/05 04:15:51;;;;;;;31.40;12.30;;;3.40;99.90;;;;;;4893072;29;20366;-71
2023/12/05 04:18:17;;;;;;;34.63;12.40;;;3.40;99.90;;;;;;4888086;29;20188;-72
2023/12/05 04:20:43;;;;;;;24.77;11.30;;;3.50;99.90;;;;;;4891648;29;20192;-72
2023/12/05 04:23:09;;;;;;;31.53;12.10;;;3.50;99.90;;;;;;4891648;29;20236;-73
2023/12/05 04:25:35;;;;;;;29.00;11.60;;;3.50;99.90;;;;;;4885894;29;20476;-72
2023/12/05 04:28:03;;;;;;;25.70;11.20;;;3.50;99.90;;;;;;4886827;29;20420;-72
2023/12/05 04:30:28;;;;;;;29.80;11.70;;;3.50;99.90;;;;;;4889711;29;20199;-74
2023/12/05 04:32:54;;;;;;;30.83;11.90;;;3.50;99.90;;;;;;4888581;29;20439;-71
2023/12/05 04:35:20;;;;;;;25.10;11.37;;;3.60;99.90;;;;;;4889202;29;20243;-73
2023/12/05 04:37:45;;;;;;;28.97;12.90;;;3.60;99.90;;;;;;4890317;29;20195;-73
2023/12/05 04:40:11;;;;;;;35.13;12.13;;;3.60;99.90;;;;;;4891832;29;20235;-72
2023/12/05 04:42:37;;;;;;;26.90;12.10;;;3.60;99.90;;;;;;4890387;29;20557;-73
2023/12/05 04:45:03;;;;;;;22.70;10.00;;;3.60;99.90;;;;;;4891028;29;20748;-73
2023/12/05 04:47:29;;;;;;;26.37;9.60;;;3.70;99.90;;;;;;4887057;29;20896;-72
2023/12/05 04:49:55;;;;;;;22.37;9.30;;;3.70;99.90;;;;;;4890339;29;20517;-73
2023/12/05 04:52:20;;;;;;;27.47;10.27;;;3.70;99.90;;;;;;4890569;29;20588;-73
2023/12/05 04:54:46;;;;;;;27.87;9.17;;;3.70;99.90;;;;;;4886880;29;20219;-72
2023/12/05 04:57:12;;;;;;;20.50;7.90;;;3.70;99.90;;;;;;4884232;29;20219;-73
2023/12/05 04:59:37;;;;;;;20.27;8.90;;;3.70;99.90;;;;;;4883671;29;20191;-72
2023/12/05 05:02:03;;;;;;;23.67;9.90;;;3.70;99.90;;;;;;4889848;29;20208;-72
2023/12/05 05:04:29;;;;;;;26.37;10.10;;;3.70;99.90;;;;;;4886062;29;20336;-71
2023/12/05 05:06:54;;;;;;;28.43;9.70;;;3.80;99.90;;;;;;4892269;29;20196;-72
2023/12/05 05:09:20;;;;;;;27.07;11.37;;;3.80;99.90;;;;;;4892663;29;20196;-73
2023/12/05 05:11:46;;;;;;;29.80;10.57;;;3.80;99.90;;;;;;4893858;29;20278;-72
2023/12/05 05:14:11;;;;;;;24.27;10.57;;;3.80;99.90;;;;;;4892796;29;20524;-73
2023/12/05 05:16:37;;;;;;;26.33;10.93;;;3.80;99.90;;;;;;4892217;29;20596;-72
2023/12/05 05:19:05;;;;;;;33.03;11.90;;;3.90;99.90;;;;;;4889190;29;20642;-72
2023/12/05 05:21:30;;;;;;;27.60;11.60;;;3.90;99.90;;;;;;4891321;29;20203;-72
2023/12/05 05:23:56;;;;;;;35.67;10.47;;;3.90;99.90;;;;;;4889658;29;20436;-72
2023/12/05 05:26:22;;;;;;;32.73;10.90;;;3.90;99.90;;;;;;4889670;29;20222;-73
2023/12/05 05:28:47;;;;;;;25.87;10.37;;;4.00;99.90;;;;;;4890014;29;20211;-74
2023/12/05 05:31:13;;;;;;;26.20;10.97;;;3.90;99.90;;;;;;4891235;29;20191;-72
2023/12/05 05:33:38;;;;;;;20.13;10.03;;;4.00;99.90;;;;;;4889295;29;20340;-73
2023/12/05 05:36:05;;;;;;;19.27;8.70;;;4.00;99.90;;;;;;4887219;29;20655;-74
2023/12/05 05:38:30;;;;;;;22.10;10.17;;;4.00;99.90;;;;;;4885687;29;20176;-73
2023/12/05 05:41:09;;;;;;;21.70;9.97;;;4.00;99.90;;;;;;4885565;29;20801;-71
2023/12/05 05:43:34;;;;;;;26.67;10.80;;;4.10;99.90;;;;;;4886511;29;20320;-73
2023/12/05 05:46:00;;;;;;;24.50;10.63;;;4.10;99.90;;;;;;4886578;29;20464;-74
2023/12/05 05:48:26;;;;;;;24.67;9.90;;;4.10;99.90;;;;;;4885571;29;20247;-72
2023/12/05 05:50:51;;;;;;;22.80;10.13;;;4.10;99.90;;;;;;4885746;29;20283;-73
2023/12/05 05:53:17;;;;;;;22.97;10.27;;;4.20;99.90;;;;;;4886994;29;20191;-73
2023/12/05 05:55:43;;;;;;;17.93;8.53;;;4.10;99.90;;;;;;4887123;29;20315;-74
2023/12/05 05:58:12;;;;;;;24.33;10.07;;;4.20;99.90;;;;;;4892308;29;20283;-73
2023/12/05 06:00:37;;;;;;;22.47;9.13;;;4.20;99.90;;;;;;4885839;29;20452;-74
2023/12/05 06:03:04;;;;;;;23.00;9.33;;;4.30;99.90;;;;;;4885495;29;20499;-74
2023/12/05 06:05:30;;;;;;;22.60;9.60;;;4.30;99.90;;;;;;4888168;29;20355;-72
2023/12/05 06:07:55;;;;;;;20.87;10.03;;;4.30;99.90;;;;;;4890820;29;20440;-74
2023/12/05 06:10:22;;;;;;;22.27;9.13;;;4.30;99.90;;;;;;4891088;29;20211;-74
2023/12/05 06:12:47;;;;;;;21.50;9.50;;;4.40;99.90;;;;;;4886215;29;20211;-72
2023/12/05 06:15:14;;;;;;;20.30;8.60;;;4.40;99.90;;;;;;4885720;29;20488;-73
2023/12/05 06:17:40;;;;;;;26.03;8.90;;;4.40;99.90;;;;;;4885170;29;20446;-73
2023/12/05 06:20:06;;;;;;;18.93;8.73;;;4.40;99.90;;;;;;4886127;29;20186;-73
2023/12/05 06:22:31;;;;;;;19.83;8.43;;;4.50;99.90;;;;;;4885946;29;20207;-72
2023/12/05 06:24:57;;;;;;;19.43;8.13;;;4.50;99.90;;;;;;4887346;29;20520;-75
2023/12/05 06:27:23;;;;;;;19.87;8.80;;;4.50;99.90;;;;;;4885000;29;20192;-72
2023/12/05 06:29:49;;;;;;;18.33;7.50;;;4.50;99.90;;;;;;4887451;29;20207;-74
2023/12/05 06:32:15;;;;;;;27.20;8.60;;;4.50;99.90;;;;;;4885730;29;20860;-75
2023/12/05 06:34:40;;;;;;;20.67;8.40;;;4.60;99.90;;;;;;4887008;29;20991;-74
2023/12/05 06:37:06;;;;;;;22.10;8.47;;;4.60;99.90;;;;;;4886835;29;20195;-73
2023/12/05 06:39:32;;;;;;;17.67;7.40;;;4.60;99.90;;;;;;4888398;29;20195;-75
2023/12/05 06:41:57;;;;;;;16.17;7.77;;;4.60;99.90;;;;;;4888723;29;20457;-75
2023/12/05 06:44:23;;;;;;;16.07;7.47;;;4.60;99.90;;;;;;4887587;29;20183;-76
2023/12/05 06:46:49;;;;;;;17.63;6.60;;;4.60;99.90;;;;;;4888939;29;20236;-74
2023/12/05 06:49:16;;;;;;;14.90;6.50;;;4.70;99.90;;;;;;4885217;29;20195;-76
2023/12/05 06:51:41;;;;;;;15.63;6.80;;;4.70;99.90;;;;;;4889300;29;20191;-76
2023/12/05 06:54:07;;;;;;;16.00;7.40;;;4.70;99.90;;;;;;4887704;29;20404;-75
2023/12/05 06:56:32;;;;;;;13.10;6.70;;;4.70;99.90;;;;;;4888638;29;20334;-75
2023/12/05 06:59:00;;;;;;;13.73;6.20;;;4.80;99.90;;;;;;4866306;29;20189;-73
2023/12/05 07:01:27;;;;;;;10.40;5.13;;;4.80;99.90;;;;;;4866504;29;20192;-73
2023/12/05 07:03:52;;;;;;;13.80;5.77;;;4.80;99.90;;;;;;4853036;29;20456;-76
2023/12/05 07:06:18;;;;;;;12.37;5.53;;;4.80;99.90;;;;;;4850014;29;20453;-75
2023/12/05 07:08:44;;;;;;;14.27;6.20;;;4.80;99.90;;;;;;4849505;29;20774;-76
2023/12/05 07:11:10;;;;;;;8.60;5.23;;;4.80;99.90;;;;;;4867041;29;20396;-75
2023/12/05 07:13:35;;;;;;;11.13;5.30;;;4.90;99.90;;;;;;4851240;29;20425;-74
2023/12/05 07:16:01;;;;;;;10.60;4.73;;;4.90;99.90;;;;;;4870537;29;20248;-74
2023/12/05 07:18:27;;;;;;;9.17;4.63;;;4.90;99.90;;;;;;4847631;29;20310;-74
2023/12/05 07:20:52;;;;;;;6.90;3.50;;;4.90;99.90;;;;;;4852256;29;20531;-75
2023/12/05 07:23:18;;;;;;;6.27;3.33;;;4.90;99.90;;;;;;4865990;29;20279;-74
2023/12/05 07:25:44;;;;;;;8.17;3.27;;;4.90;99.90;;;;;;4862073;29;20644;-75
2023/12/05 07:28:09;;;;;;;3.80;2.77;;;4.90;99.90;;;;;;4850753;29;20197;-75
2023/12/05 07:30:35;;;;;;;6.07;3.30;;;5.00;99.90;;;;;;4873869;29;20270;-74
2023/12/05 07:33:01;;;;;;;4.60;2.40;;;5.00;99.90;;;;;;4881691;29;20211;-74
2023/12/05 07:35:26;;;;;;;6.20;2.60;;;5.00;99.90;;;;;;4886656;29;20282;-74
2023/12/05 07:37:52;;;;;;;3.77;2.33;;;5.00;99.90;;;;;;4880960;29;20444;-75
2023/12/05 07:40:18;;;;;;;4.37;2.50;;;5.00;99.90;;;;;;4891192;29;20196;-74
2023/12/05 07:42:44;;;;;;;5.00;2.43;;;5.10;99.90;;;;;;4887351;29;20207;-73
2023/12/05 07:45:10;;;;;;;6.27;2.83;;;5.10;99.90;;;;;;4876319;29;20465;-74
2023/12/05 07:47:35;;;;;;;4.20;2.10;;;5.10;99.90;;;;;;4881995;29;20235;-74
2023/12/05 07:50:01;;;;;;;4.00;2.40;;;5.20;99.90;;;;;;4880854;29;20230;-76
2023/12/05 07:52:27;;;;;;;3.60;2.10;;;5.20;99.90;;;;;;4884703;29;20215;-78
2023/12/05 07:54:52;;;;;;;4.87;2.40;;;5.20;99.90;;;;;;4886652;29;20225;-75
2023/12/05 07:57:22;;;;;;;4.30;2.63;;;5.20;99.90;;;;;;4884780;29;20216;-76
2023/12/05 07:59:50;;;;;;;5.77;2.63;;;5.30;99.90;;;;;;4878850;29;20223;-75
2023/12/05 08:02:17;;;;;;;3.47;1.80;;;5.30;99.90;;;;;;4878989;29;20428;-76
2023/12/05 08:04:42;;;;;;;3.47;1.87;;;5.40;99.90;;;;;;4889675;29;20472;-75
2023/12/05 08:07:08;;;;;;;5.20;2.00;;;5.40;99.90;;;;;;4880199;29;20456;-74
2023/12/05 08:09:34;;;;;;;5.50;2.77;;;5.50;99.90;;;;;;4877147;29;20205;-74
2023/12/05 08:12:00;;;;;;;3.47;2.47;;;5.60;99.90;;;;;;4899709;29;20234;-75
2023/12/05 08:14:25;;;;;;;4.50;2.60;;;5.70;99.90;;;;;;4873712;29;20199;-75
2023/12/05 08:16:51;;;;;;;3.10;2.00;;;5.80;99.90;;;;;;4888241;29;20192;-74
2023/12/05 08:19:17;;;;;;;4.97;2.43;;;5.90;99.90;;;;;;4880282;29;20597;-77
2023/12/05 08:21:43;;;;;;;4.40;2.20;;;6.00;99.90;;;;;;4885556;29;20200;-74
2023/12/05 08:24:08;;;;;;;4.30;2.43;;;6.00;99.90;;;;;;4878826;29;20184;-75
2023/12/05 08:26:34;;;;;;;4.07;2.00;;;6.00;99.90;;;;;;4883327;29;20276;-76
2023/12/05 08:29:01;;;;;;;4.43;2.20;;;6.10;99.90;;;;;;4891356;29;20276;-78
2023/12/05 08:31:26;;;;;;;2.90;1.80;;;6.00;99.90;;;;;;4891992;29;20259;-76
2023/12/05 08:33:52;;;;;;;3.20;1.83;;;6.10;99.90;;;;;;4887112;29;20436;-74
2023/12/05 08:36:18;;;;;;;3.17;1.70;;;6.10;99.90;;;;;;4890862;29;20231;-74
2023/12/05 08:38:44;;;;;;;2.93;1.60;;;6.10;99.90;;;;;;4892205;29;20252;-78
2023/12/05 08:41:17;;;;;;;3.30;1.90;;;6.10;99.90;;;;;;4875455;29;20195;-75
2023/12/05 08:43:43;;;;;;;3.10;1.70;;;6.10;99.90;;;;;;4897647;29;20420;-76
2023/12/05 08:46:09;;;;;;;2.03;1.60;;;6.20;99.90;;;;;;4890849;29;20460;-76
2023/12/05 08:48:35;;;;;;;3.37;1.90;;;6.20;99.90;;;;;;4876168;29;20461;-76
2023/12/05 08:51:01;;;;;;;2.47;1.57;;;6.30;99.90;;;;;;4891511;29;20207;-74
2023/12/05 08:53:27;;;;;;;2.80;1.60;;;6.30;99.90;;;;;;4894330;29;20172;-75
2023/12/05 08:55:52;;;;;;;2.20;1.63;;;6.30;99.90;;;;;;4894042;29;20488;-76
2023/12/05 08:58:18;;;;;;;1.60;1.20;;;6.40;99.90;;;;;;4883497;29;20493;-75
2023/12/05 09:00:44;;;;;;;1.13;0.97;;;6.40;99.90;;;;;;4882814;29;20490;-76
2023/12/05 09:03:10;;;;;;;1.77;1.67;;;6.40;99.90;;;;;;4885216;29;20218;-76
2023/12/05 09:05:36;;;;;;;1.57;1.03;;;6.40;99.90;;;;;;4892859;29;20244;-75
2023/12/05 09:08:01;;;;;;;2.17;1.30;;;6.40;99.90;;;;;;4892227;29;20655;-73
2023/12/05 09:10:27;;;;;;;1.60;1.20;;;6.40;99.90;;;;;;4869641;29;20463;-75
2023/12/05 09:12:53;;;;;;;1.80;0.90;;;6.40;99.90;;;;;;4889057;29;20607;-75
2023/12/05 09:15:19;;;;;;;1.30;1.00;;;6.40;99.90;;;;;;4888036;29;20792;-74
2023/12/05 09:17:44;;;;;;;1.70;1.40;;;6.40;99.90;;;;;;4882691;29;20266;-77
2023/12/05 09:20:10;;;;;;;2.73;1.40;;;6.40;99.90;;;;;;4889433;29;20204;-75
2023/12/05 09:22:36;;;;;;;1.57;1.17;;;6.40;99.90;;;;;;4888088;29;20252;-74
2023/12/05 09:25:02;;;;;;;1.67;1.10;;;6.40;99.90;;;;;;4896495;29;20239;-76
2023/12/05 09:27:28;;;;;;;1.90;1.40;;;6.40;99.90;;;;;;4887990;29;20447;-74
2023/12/05 09:29:54;;;;;;;2.87;1.47;;;6.50;99.90;;;;;;4894030;29;20456;-78
2023/12/05 09:32:20;;;;;;;2.70;1.80;;;6.50;99.90;;;;;;4892222;29;20199;-74
2023/12/05 09:34:45;;;;;;;1.87;1.23;;;6.50;99.90;;;;;;4889117;29;20509;-74
2023/12/05 09:37:11;;;;;;;2.10;1.33;;;6.50;99.90;;;;;;4884783;29;20255;-73
2023/12/05 09:39:37;;;;;;;2.00;1.50;;;6.60;99.90;;;;;;4887248;29;20188;-75
2023/12/05 09:42:06;;;;;;;2.37;1.20;;;6.50;99.90;;;;;;4879945;29;20533;-75
2023/12/05 09:44:35;;;;;;;2.80;1.60;;;6.60;99.90;;;;;;4880649;29;20283;-74
2023/12/05 09:47:05;;;;;;;1.10;1.00;;;6.60;99.90;;;;;;4889506;29;20464;-74
2023/12/05 09:49:31;;;;;;;1.63;1.10;;;6.70;99.90;;;;;;4885293;29;20561;-74
2023/12/05 09:51:59;;;;;;;2.20;0.87;;;6.70;99.90;;;;;;4872364;29;20464;-74
2023/12/05 09:54:28;;;;;;;3.03;1.00;;;6.70;99.90;;;;;;4885978;29;20227;-75
2023/12/05 09:56:55;;;;;;;1.13;1.00;;;6.70;99.90;;;;;;4890540;29;20459;-74
2023/12/05 09:59:21;;;;;;;1.57;0.90;;;6.70;99.90;;;;;;4887143;29;20428;-74
2023/12/05 10:01:47;;;;;;;1.23;1.07;;;6.80;99.90;;;;;;4890483;29;20419;-73
2023/12/05 10:04:18;;;;;;;1.53;1.10;;;6.80;99.90;;;;;;4881088;29;20449;-74
2023/12/05 10:06:46;;;;;;;1.10;1.00;;;6.90;99.90;;;;;;4883329;29;20924;-73
2023/12/05 10:09:14;;;;;;;1.57;0.90;;;6.90;99.90;;;;;;4890739;29;20457;-77
2023/12/05 10:11:42;;;;;;;1.70;1.30;;;6.90;99.90;;;;;;4888776;29;20451;-77
2023/12/05 10:14:07;;;;;;;0.93;0.87;;;7.00;99.90;;;;;;4890550;29;20449;-78
2023/12/05 10:16:33;;;;;;;1.33;0.90;;;7.00;99.90;;;;;;4886705;29;20500;-76
2023/12/05 10:19:00;;;;;;;1.07;0.93;;;7.00;99.90;;;;;;4872372;29;20190;-73
2023/12/05 10:21:25;;;;;;;1.10;0.97;;;7.10;99.90;;;;;;4888418;29;20686;-73
2023/12/05 10:23:51;;;;;;;1.30;1.20;;;7.10;99.90;;;;;;4887398;29;20429;-76
2023/12/05 10:26:17;;;;;;;0.97;0.87;;;7.10;99.90;;;;;;4889685;29;20240;-78
2023/12/05 10:28:53;;;;;;;0.90;0.70;;;7.20;99.90;;;;;;4889184;29;20436;-75
2023/12/05 10:31:19;;;;;;;0.80;0.70;;;7.30;99.90;;;;;;4887617;29;20271;-76
2023/12/05 10:33:49;;;;;;;1.37;1.07;;;7.30;99.90;;;;;;4882964;29;20429;-79
2023/12/05 10:36:15;;;;;;;1.33;0.93;;;7.40;99.90;;;;;;4870223;29;20475;-76
2023/12/05 10:38:45;;;;;;;1.03;0.80;;;7.40;99.90;;;;;;4890187;29;20415;-75
2023/12/05 10:41:12;;;;;;;1.30;1.10;;;7.50;99.90;;;;;;4893551;29;20413;-78
2023/12/05 10:43:46;;;;;;;1.50;0.80;;;7.50;99.90;;;;;;4882969;29;20465;-77
2023/12/05 10:46:12;;;;;;;0.93;0.80;;;7.50;99.90;;;;;;4877560;29;20459;-76
2023/12/05 10:48:38;;;;;;;1.20;0.90;;;7.60;99.90;;;;;;4880730;29;20428;-73
2023/12/05 10:51:04;;;;;;;1.37;0.90;;;7.50;99.90;;;;;;4882824;29;20440;-77
2023/12/05 10:53:34;;;;;;;0.90;0.67;;;7.50;99.90;;;;;;4884362;29;20200;-76
2023/12/05 10:56:13;;;;;;;1.00;0.73;;;7.50;99.90;;;;;;4885572;29;20483;-78
2023/12/05 10:58:43;;;;;;;1.00;0.80;;;7.40;99.90;;;;;;4891241;29;20504;-76
2023/12/05 11:01:13;;;;;;;1.07;0.83;;;7.40;99.90;;;;;;4887143;29;20458;-77
2023/12/05 11:03:39;;;;;;;0.90;0.70;;;7.30;99.90;;;;;;4887438;29;20432;-77
2023/12/05 11:06:08;;;;;;;1.07;0.70;;;7.30;99.90;;;;;;4891267;29;21121;-78
2023/12/05 11:08:35;;;;;;;2.03;1.10;;;7.20;99.90;;;;;;4888878;29;20483;-75
2023/12/05 11:11:05;;;;;;;1.00;0.80;;;7.20;99.90;;;;;;4879707;29;20445;-75
2023/12/05 11:13:34;;;;;;;1.00;0.70;;;7.20;99.90;;;;;;4878098;29;20445;-76
2023/12/05 11:16:13;;;;;;;1.00;0.70;;;7.20;99.90;;;;;;4891600;29;20540;-76
2023/12/05 11:18:40;;;;;;;1.30;0.80;;;7.20;99.90;;;;;;4870492;29;20513;-76
2023/12/05 11:21:36;;;;;;;1.10;0.73;;;7.20;99.90;;;;;;4875373;29;20444;-76
2023/12/05 11:24:14;;;;;;;1.00;0.80;;;7.30;99.90;;;;;;4870015;29;20448;-77
2023/12/05 11:27:05;;;;;;;1.67;0.90;;;7.30;99.90;;;;;;4874700;29;20471;-77
2023/12/05 11:29:49;;;;;;;0.87;0.60;;;7.20;99.90;;;;;;4888198;29;20464;-76
2023/12/05 11:32:25;;;;;;;1.20;0.70;;;7.20;99.90;;;;;;4883410;29;20433;-78
2023/12/05 11:35:12;;;;;;;0.80;0.60;;;7.20;99.90;;;;;;4890081;29;20552;-77
2023/12/05 11:37:52;;;;;;;0.90;0.60;;;7.10;99.90;;;;;;4891502;29;20498;-77
2023/12/05 11:40:18;;;;;;;1.03;0.70;;;7.20;99.90;;;;;;4883741;29;20424;-78
2023/12/05 11:43:04;;;;;;;0.90;0.70;;;7.10;99.90;;;;;;4898081;29;20468;-78
2023/12/05 11:45:30;;;;;;;0.90;0.53;;;7.10;99.90;;;;;;4884118;29;20204;-77
2023/12/05 11:47:58;;;;;;;1.13;0.80;;;7.10;99.90;;;;;;4893383;29;20448;-76
2023/12/05 11:50:24;;;;;;;1.47;0.97;;;7.10;99.90;;;;;;4893316;29;20344;-74
2023/12/05 11:52:49;;;;;;;1.30;0.80;;;7.10;99.90;;;;;;4890147;29;20481;-77
2023/12/05 11:55:15;;;;;;;1.70;0.83;;;7.10;99.90;;;;;;4880373;29;20279;-74
2023/12/05 11:57:41;;;;;;;0.97;0.67;;;7.10;99.90;;;;;;4893729;29;20223;-74
2023/12/05 12:00:10;;;;;;;1.00;0.80;;;7.10;99.90;;;;;;4886202;29;20480;-76
2023/12/05 12:02:47;;;;;;;0.70;0.60;;;7.10;99.90;;;;;;4874921;29;20238;-75
2023/12/05 12:05:13;;;;;;;1.07;0.70;;;7.00;99.90;;;;;;4877548;29;20470;-76
2023/12/05 12:07:53;;;;;;;0.90;0.60;;;7.10;99.90;;;;;;4895160;29;20450;-77
2023/12/05 12:10:19;;;;;;;1.10;0.60;;;7.10;99.90;;;;;;4892189;29;20179;-74
2023/12/05 12:12:46;;;;;;;1.10;0.90;;;7.10;99.90;;;;;;4890134;29;20423;-76
2023/12/05 12:15:14;;;;;;;0.97;0.60;;;7.00;99.90;;;;;;4895253;29;20478;-78
2023/12/05 12:17:45;;;;;;;1.07;0.80;;;7.00;99.90;;;;;;4884489;29;20444;-77
2023/12/05 12:20:15;;;;;;;0.90;0.60;;;7.10;99.90;;;;;;4893318;29;20412;-77
2023/12/05 12:22:49;;;;;;;1.10;0.60;;;7.10;99.90;;;;;;4892310;29;20439;-77
2023/12/05 12:25:16;;;;;;;1.27;0.70;;;7.10;99.90;;;;;;4896021;29;20463;-76
2023/12/05 12:27:43;;;;;;;1.20;0.70;;;7.10;99.90;;;;;;4891153;29;20444;-76
2023/12/05 12:30:13;;;;;;;0.90;0.70;;;7.10;99.90;;;;;;4895292;29;20444;-79
2023/12/05 12:32:59;;;;;;;0.93;0.70;;;7.20;99.90;;;;;;4858841;29;20457;-77
2023/12/05 12:35:25;;;;;;;1.00;0.70;;;7.20;99.90;;;;;;4885484;29;20584;-77
2023/12/05 12:37:52;;;;;;;1.27;0.80;;;7.20;99.90;;;;;;4864373;29;20557;-76
2023/12/05 12:40:19;;;;;;;0.90;0.63;;;7.20;99.90;;;;;;4890099;29;20468;-78
2023/12/05 12:42:51;;;;;;;0.90;0.70;;;7.10;99.90;;;;;;4897910;29;20432;-79
2023/12/05 12:45:18;;;;;;;0.90;0.80;;;7.10;99.90;;;;;;4898609;29;20475;-79
2023/12/05 12:47:44;;;;;;;0.90;0.70;;;7.10;99.90;;;;;;4887375;29;20515;-79